Time;durP1;ratioP1;P1;durP2;ratioP2;P2;SDS_P1;SDS_P2;PMS_P1;PMS_P2;Temp;Humidity;BMP_temperature;BMP_pressure;BME280_temperature;BME280_humidity;BME280_pressure;Samples;Min_cycle;Max_cycle;Signal;HPM_P1;HPM_P2
2024/01/20 00:01:26;;;;;;;10.47;4.53;;;1.00;99.90;;;;;;4950996;28;20224;-87
2024/01/20 00:03:53;;;;;;;8.70;3.57;;;1.00;99.90;;;;;;4950346;28;20290;-85
2024/01/20 00:06:22;;;;;;;10.80;3.70;;;1.00;99.90;;;;;;4946974;28;20228;-86
2024/01/20 00:08:48;;;;;;;9.13;4.10;;;1.00;99.90;;;;;;4950887;28;20243;-86
2024/01/20 00:11:15;;;;;;;9.07;3.80;;;1.10;99.90;;;;;;4950549;28;20663;-86
2024/01/20 00:13:42;;;;;;;8.23;3.90;;;1.10;99.90;;;;;;4949357;28;20262;-87
2024/01/20 00:16:09;;;;;;;13.87;3.93;;;1.10;99.90;;;;;;4948266;28;20227;-86
2024/01/20 00:18:35;;;;;;;10.27;3.83;;;1.10;99.90;;;;;;4950316;28;20689;-86
2024/01/20 00:21:02;;;;;;;10.47;3.47;;;1.10;99.90;;;;;;4965361;28;20232;-86
2024/01/20 00:23:30;;;;;;;7.07;3.60;;;1.20;99.90;;;;;;4942230;28;20252;-87
2024/01/20 00:25:57;;;;;;;6.07;3.50;;;1.20;99.90;;;;;;4954520;28;20312;-86
2024/01/20 00:28:24;;;;;;;12.13;3.57;;;1.20;99.90;;;;;;4954573;28;20241;-86
2024/01/20 00:30:51;;;;;;;7.20;3.20;;;1.20;99.90;;;;;;4970357;28;20228;-86
2024/01/20 00:33:17;;;;;;;7.97;3.80;;;1.20;99.90;;;;;;4941570;28;20328;-87
2024/01/20 00:35:45;;;;;;;9.47;4.03;;;1.20;99.90;;;;;;4972094;28;20223;-86
2024/01/20 00:38:12;;;;;;;6.40;3.60;;;1.30;99.90;;;;;;4948880;28;20231;-87
2024/01/20 00:40:40;;;;;;;8.10;3.80;;;1.20;99.90;;;;;;4973318;28;20228;-85
2024/01/20 00:43:07;;;;;;;6.70;3.93;;;1.30;99.90;;;;;;4968932;28;20238;-86
2024/01/20 00:45:34;;;;;;;12.47;4.30;;;1.20;99.90;;;;;;4941773;28;20238;-88
2024/01/20 00:48:02;;;;;;;8.57;3.83;;;1.30;99.90;;;;;;4973207;28;20226;-87
2024/01/20 00:50:29;;;;;;;11.20;3.80;;;1.30;99.90;;;;;;4951233;28;20233;-86
2024/01/20 00:52:56;;;;;;;10.93;3.70;;;1.30;99.90;;;;;;4970981;28;20228;-88
2024/01/20 00:55:23;;;;;;;10.17;4.23;;;1.30;99.90;;;;;;4969232;28;20237;-87
2024/01/20 00:57:52;;;;;;;7.17;3.87;;;1.30;99.90;;;;;;4966367;28;20227;-87
2024/01/20 01:00:19;;;;;;;10.47;4.00;;;1.30;99.90;;;;;;4968960;28;20230;-87
2024/01/20 01:02:46;;;;;;;9.17;4.13;;;1.30;99.90;;;;;;4972745;28;20230;-87
2024/01/20 01:05:13;;;;;;;10.13;3.77;;;1.30;99.90;;;;;;4967672;28;20243;-87
2024/01/20 01:07:40;;;;;;;11.63;4.57;;;1.30;99.90;;;;;;4940682;28;20228;-86
2024/01/20 01:10:08;;;;;;;8.83;4.33;;;1.30;99.90;;;;;;4966640;28;20249;-87
2024/01/20 01:12:35;;;;;;;8.73;4.17;;;1.30;99.90;;;;;;4955684;28;20317;-88
2024/01/20 01:15:05;;;;;;;12.73;4.40;;;1.30;99.90;;;;;;4972248;28;20236;-86
2024/01/20 01:17:32;;;;;;;8.77;4.20;;;1.20;99.90;;;;;;4960431;28;20317;-87
2024/01/20 01:19:59;;;;;;;8.60;4.20;;;1.30;99.90;;;;;;4964694;28;20229;-86
2024/01/20 01:22:27;;;;;;;8.90;4.13;;;1.30;99.90;;;;;;4959106;28;20288;-86
2024/01/20 01:24:54;;;;;;;8.40;4.40;;;1.30;99.90;;;;;;4974980;28;20881;-88
2024/01/20 01:27:21;;;;;;;8.80;4.43;;;1.30;99.90;;;;;;4947110;28;20325;-85
2024/01/20 01:29:48;;;;;;;8.87;4.70;;;1.30;99.90;;;;;;4948299;28;20227;-86
2024/01/20 01:32:15;;;;;;;10.00;4.97;;;1.30;99.90;;;;;;4950284;28;20246;-86
2024/01/20 01:34:42;;;;;;;8.17;4.30;;;1.30;99.90;;;;;;4968110;28;20241;-86
2024/01/20 01:37:08;;;;;;;8.53;4.47;;;1.30;99.90;;;;;;4955687;28;20233;-87
2024/01/20 01:39:35;;;;;;;8.77;4.83;;;1.40;99.90;;;;;;4952530;28;20653;-88
2024/01/20 01:42:02;;;;;;;10.00;5.30;;;1.30;99.90;;;;;;4973724;28;20893;-86
2024/01/20 01:44:29;;;;;;;8.37;5.23;;;1.30;99.90;;;;;;4971257;28;20769;-85
2024/01/20 01:46:56;;;;;;;10.03;4.93;;;1.30;99.90;;;;;;4955976;28;20763;-86
2024/01/20 01:49:24;;;;;;;8.87;5.13;;;1.30;99.90;;;;;;4949614;28;20226;-86
2024/01/20 01:51:51;;;;;;;9.67;5.10;;;1.30;99.90;;;;;;4963520;28;20319;-85
2024/01/20 01:54:20;;;;;;;10.33;5.13;;;1.30;99.90;;;;;;4966258;28;20223;-86
2024/01/20 01:56:51;;;;;;;12.80;5.53;;;1.30;99.90;;;;;;4970922;28;20826;-85
2024/01/20 01:59:18;;;;;;;7.77;5.43;;;1.30;99.90;;;;;;4956805;28;20318;-86
2024/01/20 02:01:45;;;;;;;11.10;5.73;;;1.30;99.90;;;;;;4975362;28;20244;-85
2024/01/20 02:04:12;;;;;;;13.23;6.20;;;1.30;99.90;;;;;;4968029;28;20234;-86
2024/01/20 02:06:41;;;;;;;11.73;6.07;;;1.30;99.90;;;;;;4935697;28;20231;-86
2024/01/20 02:09:09;;;;;;;12.50;6.73;;;1.30;99.90;;;;;;4976988;28;20248;-86
2024/01/20 02:11:37;;;;;;;11.43;6.17;;;1.30;99.90;;;;;;4957364;28;20245;-85
2024/01/20 02:14:04;;;;;;;10.97;6.47;;;1.30;99.90;;;;;;4974858;28;20312;-84
2024/01/20 02:16:31;;;;;;;16.13;6.63;;;1.30;99.90;;;;;;4969971;28;20307;-86
2024/01/20 02:19:02;;;;;;;9.33;6.60;;;1.30;99.90;;;;;;4954889;28;20281;-87
2024/01/20 02:21:29;;;;;;;14.27;7.53;;;1.30;99.90;;;;;;4967808;28;20256;-87
2024/01/20 02:23:59;;;;;;;15.23;7.27;;;1.20;99.90;;;;;;4967553;28;20238;-87
2024/01/20 02:26:29;;;;;;;10.53;6.70;;;1.20;99.90;;;;;;4948218;28;20253;-86
2024/01/20 02:28:56;;;;;;;14.00;7.50;;;1.20;99.90;;;;;;4973091;28;20254;-87
2024/01/20 02:31:23;;;;;;;12.13;7.47;;;1.20;99.90;;;;;;4943016;28;20223;-85
2024/01/20 02:33:50;;;;;;;12.30;7.60;;;1.10;99.90;;;;;;4968545;28;20799;-85
2024/01/20 02:36:16;;;;;;;12.03;7.70;;;1.10;99.90;;;;;;4966228;28;20229;-85
2024/01/20 02:38:43;;;;;;;15.60;7.97;;;1.10;99.90;;;;;;4964654;28;20310;-85
2024/01/20 02:41:12;;;;;;;14.90;7.67;;;1.10;99.90;;;;;;4976263;28;20221;-86
2024/01/20 02:43:41;;;;;;;13.07;8.13;;;1.10;99.90;;;;;;4959704;28;20218;-85
2024/01/20 02:46:07;;;;;;;11.27;7.67;;;1.10;99.90;;;;;;4970875;28;20235;-85
2024/01/20 02:48:34;;;;;;;12.57;8.33;;;1.10;99.90;;;;;;4955111;28;20249;-85
2024/01/20 02:51:01;;;;;;;17.00;8.70;;;1.10;99.90;;;;;;4975670;28;20219;-87
2024/01/20 02:53:28;;;;;;;12.30;8.50;;;1.10;99.90;;;;;;4978625;28;20234;-87
2024/01/20 02:55:55;;;;;;;15.13;9.03;;;1.10;99.90;;;;;;4969301;28;20553;-86
2024/01/20 02:58:23;;;;;;;12.80;7.73;;;1.00;99.90;;;;;;4957955;28;20898;-87
2024/01/20 03:00:50;;;;;;;15.23;8.07;;;1.00;99.90;;;;;;4959184;28;20246;-85
2024/01/20 03:03:17;;;;;;;15.57;8.67;;;1.00;99.90;;;;;;4962928;28;20232;-87
2024/01/20 03:05:44;;;;;;;13.40;9.07;;;1.00;99.90;;;;;;4956685;28;20230;-86
2024/01/20 03:08:11;;;;;;;12.30;8.37;;;1.00;99.90;;;;;;4956680;28;20314;-86
2024/01/20 03:10:38;;;;;;;11.80;8.27;;;0.90;99.90;;;;;;4972815;28;20312;-87
2024/01/20 03:13:05;;;;;;;16.63;9.00;;;0.90;99.90;;;;;;4963342;28;20222;-85
2024/01/20 03:15:33;;;;;;;15.87;9.03;;;0.90;99.90;;;;;;4959569;28;20223;-86
2024/01/20 03:18:00;;;;;;;14.93;8.73;;;0.90;99.90;;;;;;4956765;28;20303;-86
2024/01/20 03:20:26;;;;;;;14.17;9.07;;;0.90;99.90;;;;;;4956604;28;20230;-84
2024/01/20 03:22:53;;;;;;;12.57;8.80;;;0.90;99.90;;;;;;4959715;28;20318;-84
2024/01/20 03:25:20;;;;;;;12.53;7.93;;;0.90;99.90;;;;;;4959468;28;20312;-84
2024/01/20 03:27:46;;;;;;;12.97;8.30;;;0.90;99.90;;;;;;4944219;28;20305;-86
2024/01/20 03:30:14;;;;;;;15.13;8.93;;;0.90;99.90;;;;;;4943826;28;20333;-87
2024/01/20 03:32:42;;;;;;;13.40;8.97;;;0.90;99.90;;;;;;4959501;28;20737;-86
2024/01/20 03:35:09;;;;;;;14.97;8.90;;;0.90;99.90;;;;;;4967864;28;20243;-85
2024/01/20 03:37:35;;;;;;;12.37;9.23;;;0.90;99.90;;;;;;4963166;28;20230;-85
2024/01/20 03:40:03;;;;;;;14.20;9.00;;;0.90;99.90;;;;;;4974222;28;20319;-86
2024/01/20 03:42:30;;;;;;;12.70;8.97;;;0.90;99.90;;;;;;4968330;28;20874;-84
2024/01/20 03:44:57;;;;;;;18.63;9.70;;;0.90;99.90;;;;;;4958050;28;20286;-85
2024/01/20 03:47:23;;;;;;;16.43;9.20;;;0.80;99.90;;;;;;4975563;28;20317;-85
2024/01/20 03:49:51;;;;;;;12.93;9.37;;;0.80;99.90;;;;;;4959636;28;20254;-86
2024/01/20 03:52:18;;;;;;;13.73;9.33;;;0.80;99.90;;;;;;4971934;28;20258;-86
2024/01/20 03:54:45;;;;;;;12.47;9.47;;;0.80;99.90;;;;;;4973157;28;20312;-85
2024/01/20 03:57:12;;;;;;;18.43;8.93;;;0.80;99.90;;;;;;4965742;28;20229;-86
2024/01/20 03:59:39;;;;;;;16.40;9.63;;;0.80;99.90;;;;;;4960525;28;20239;-85
2024/01/20 04:02:06;;;;;;;14.40;9.63;;;0.80;99.90;;;;;;4973670;28;20222;-86
2024/01/20 04:04:32;;;;;;;12.73;9.70;;;0.80;99.90;;;;;;4963729;28;20339;-85
2024/01/20 04:07:01;;;;;;;17.07;9.63;;;0.80;99.90;;;;;;4974923;28;20250;-86
2024/01/20 04:09:28;;;;;;;15.40;9.50;;;0.80;99.90;;;;;;4966589;28;20315;-86
2024/01/20 04:11:54;;;;;;;15.80;9.90;;;0.80;99.90;;;;;;4955806;28;20222;-85
2024/01/20 04:14:21;;;;;;;16.27;9.93;;;0.80;99.90;;;;;;4969008;28;20250;-84
2024/01/20 04:16:48;;;;;;;18.37;10.50;;;0.80;99.90;;;;;;4956468;28;20977;-85
2024/01/20 04:19:15;;;;;;;14.63;10.00;;;0.80;99.90;;;;;;4941921;28;20238;-84
2024/01/20 04:21:43;;;;;;;17.73;10.23;;;0.80;99.90;;;;;;4974174;28;20226;-84
2024/01/20 04:24:11;;;;;;;18.73;10.87;;;0.80;99.90;;;;;;4953940;28;20790;-86
2024/01/20 04:26:37;;;;;;;16.63;11.10;;;0.80;99.90;;;;;;4948612;28;20261;-86
2024/01/20 04:29:04;;;;;;;18.23;11.03;;;0.70;99.90;;;;;;4976640;28;20245;-85
2024/01/20 04:31:31;;;;;;;18.70;11.57;;;0.80;99.90;;;;;;4955898;28;20225;-85
2024/01/20 04:33:58;;;;;;;18.03;12.33;;;0.80;99.90;;;;;;4973593;28;20282;-85
2024/01/20 04:36:25;;;;;;;23.37;12.80;;;0.70;99.90;;;;;;4956295;28;20230;-87
2024/01/20 04:38:52;;;;;;;17.07;12.00;;;0.80;99.90;;;;;;4955707;28;20239;-84
2024/01/20 04:41:21;;;;;;;20.40;12.30;;;0.80;99.90;;;;;;4953831;28;20263;-85
2024/01/20 04:43:47;;;;;;;17.00;12.77;;;0.80;99.90;;;;;;4972992;28;20769;-86
2024/01/20 04:46:15;;;;;;;18.97;12.53;;;0.80;99.90;;;;;;4953385;28;20257;-85
2024/01/20 04:48:42;;;;;;;20.00;13.07;;;0.80;99.90;;;;;;4966871;28;20794;-86
2024/01/20 04:51:09;;;;;;;17.47;12.47;;;0.80;99.90;;;;;;4954069;28;20851;-86
2024/01/20 04:53:37;;;;;;;18.70;13.17;;;0.80;99.90;;;;;;4948647;28;20792;-86
2024/01/20 04:56:04;;;;;;;18.60;12.97;;;0.80;99.90;;;;;;4961338;28;20902;-85
2024/01/20 04:58:33;;;;;;;20.40;13.40;;;0.80;99.90;;;;;;4958224;28;20802;-86
2024/01/20 05:01:00;;;;;;;17.43;13.50;;;0.80;99.90;;;;;;4960909;28;20225;-85
2024/01/20 05:03:27;;;;;;;20.13;13.30;;;0.90;99.90;;;;;;4953427;28;20231;-86
2024/01/20 05:05:54;;;;;;;22.87;14.27;;;0.90;99.90;;;;;;4961149;28;20757;-85
2024/01/20 05:08:21;;;;;;;21.17;13.90;;;0.90;99.90;;;;;;4958638;28;20230;-89
2024/01/20 05:10:48;;;;;;;18.73;14.80;;;0.90;99.90;;;;;;4953016;28;20903;-86
2024/01/20 05:13:15;;;;;;;16.53;13.60;;;0.90;99.90;;;;;;4951313;28;20736;-86
2024/01/20 05:15:44;;;;;;;20.70;13.50;;;0.90;99.90;;;;;;4960558;28;20232;-86
2024/01/20 05:18:11;;;;;;;21.50;14.33;;;0.90;99.90;;;;;;4957578;28;20346;-86
2024/01/20 05:20:38;;;;;;;19.40;13.60;;;0.90;99.90;;;;;;4965371;28;20223;-86
2024/01/20 05:23:05;;;;;;;21.53;13.77;;;0.90;99.90;;;;;;4971273;28;20230;-86
2024/01/20 05:25:32;;;;;;;19.07;13.73;;;0.90;99.90;;;;;;4966461;28;20229;-88
2024/01/20 05:27:59;;;;;;;17.27;12.97;;;0.90;99.90;;;;;;4977143;28;20221;-86
2024/01/20 05:30:26;;;;;;;23.37;14.10;;;0.90;99.90;;;;;;4962885;28;20219;-86
2024/01/20 05:32:55;;;;;;;19.60;13.30;;;0.90;99.90;;;;;;4971970;28;20741;-86
2024/01/20 05:35:22;;;;;;;21.57;13.97;;;0.90;99.90;;;;;;4963763;28;20231;-86
2024/01/20 05:37:50;;;;;;;20.40;13.40;;;1.00;99.90;;;;;;4959538;28;20853;-86
2024/01/20 05:40:17;;;;;;;18.50;13.27;;;0.90;99.90;;;;;;4950064;28;20233;-86
2024/01/20 05:42:44;;;;;;;19.97;14.30;;;0.90;99.90;;;;;;4971014;28;20767;-85
2024/01/20 05:45:11;;;;;;;17.50;13.67;;;0.90;99.90;;;;;;4970244;28;20278;-85
2024/01/20 05:47:38;;;;;;;20.57;14.60;;;0.90;99.90;;;;;;4949563;28;20227;-87
2024/01/20 05:50:08;;;;;;;17.93;13.60;;;0.90;99.90;;;;;;4969261;28;20222;-86
2024/01/20 05:52:35;;;;;;;19.53;13.97;;;0.90;99.90;;;;;;4970170;28;20222;-85
2024/01/20 05:55:03;;;;;;;20.97;13.80;;;0.90;99.90;;;;;;4971914;28;20828;-87
2024/01/20 05:57:30;;;;;;;21.90;14.07;;;0.90;99.90;;;;;;4969216;28;20223;-87
2024/01/20 05:59:57;;;;;;;21.87;13.83;;;0.90;99.90;;;;;;4950719;28;20489;-87
2024/01/20 06:02:24;;;;;;;21.67;13.90;;;0.90;99.90;;;;;;4949459;28;20242;-86
2024/01/20 06:04:51;;;;;;;18.30;13.33;;;0.80;99.90;;;;;;4957801;28;20233;-89
2024/01/20 06:07:20;;;;;;;21.77;14.50;;;0.80;99.90;;;;;;4958268;28;20237;-87
2024/01/20 06:09:47;;;;;;;19.67;14.27;;;0.70;99.90;;;;;;4955010;28;20223;-86
2024/01/20 06:12:14;;;;;;;23.20;14.43;;;0.70;99.90;;;;;;4938388;28;20233;-87
2024/01/20 06:14:41;;;;;;;20.33;14.43;;;0.70;99.90;;;;;;4951040;28;20230;-89
2024/01/20 06:17:09;;;;;;;22.77;14.70;;;0.70;99.90;;;;;;4945526;28;20232;-88
2024/01/20 06:19:36;;;;;;;23.33;15.00;;;0.70;99.90;;;;;;4956721;28;20222;-88
2024/01/20 06:22:03;;;;;;;19.50;14.20;;;0.70;99.90;;;;;;4962917;28;20222;-88
2024/01/20 06:24:32;;;;;;;25.33;14.27;;;0.70;99.90;;;;;;4949864;28;20739;-87
2024/01/20 06:26:59;;;;;;;18.37;13.73;;;0.70;99.90;;;;;;4961859;28;20223;-88
2024/01/20 06:29:26;;;;;;;18.37;13.43;;;0.70;99.90;;;;;;4965869;28;20257;-88
2024/01/20 06:31:53;;;;;;;21.27;13.57;;;0.70;99.90;;;;;;4956486;28;20227;-89
2024/01/20 06:34:21;;;;;;;23.10;14.23;;;0.70;99.90;;;;;;4952958;28;20891;-89
2024/01/20 06:36:48;;;;;;;21.30;14.07;;;0.70;99.90;;;;;;4953564;28;20234;-88
2024/01/20 06:39:15;;;;;;;18.87;13.47;;;0.70;99.90;;;;;;4973513;28;20256;-86
2024/01/20 06:41:45;;;;;;;21.87;14.47;;;0.70;99.90;;;;;;4949975;28;20221;-86
2024/01/20 06:44:13;;;;;;;20.97;13.37;;;0.70;99.90;;;;;;4953579;28;20243;-87
2024/01/20 06:46:40;;;;;;;21.97;14.57;;;0.70;99.90;;;;;;4952432;28;20253;-86
2024/01/20 06:49:07;;;;;;;17.53;13.13;;;0.70;99.90;;;;;;4951644;28;20251;-86
2024/01/20 06:51:34;;;;;;;21.27;13.97;;;0.60;99.90;;;;;;4957359;28;20238;-86
2024/01/20 06:54:01;;;;;;;22.90;15.27;;;0.70;99.90;;;;;;4956615;28;20240;-85
2024/01/20 06:56:30;;;;;;;22.43;14.60;;;0.60;99.90;;;;;;4973988;28;20243;-85
2024/01/20 06:58:59;;;;;;;19.33;14.30;;;0.60;99.90;;;;;;4953199;28;20253;-85
2024/01/20 07:01:26;;;;;;;22.67;15.30;;;0.60;99.90;;;;;;4942082;28;20783;-85
2024/01/20 07:03:53;;;;;;;22.03;15.00;;;0.60;99.90;;;;;;4939400;28;20226;-85
2024/01/20 07:06:23;;;;;;;22.70;15.03;;;0.60;99.90;;;;;;4966685;28;20317;-84
2024/01/20 07:08:49;;;;;;;22.37;14.30;;;0.50;99.90;;;;;;4951353;28;20257;-85
2024/01/20 07:11:16;;;;;;;22.27;14.80;;;0.50;99.90;;;;;;4947422;28;20296;-84
2024/01/20 07:13:43;;;;;;;21.83;14.40;;;0.50;99.90;;;;;;4949920;28;20246;-83
2024/01/20 07:16:13;;;;;;;23.47;14.97;;;0.40;99.90;;;;;;4968620;28;20231;-84
2024/01/20 07:18:41;;;;;;;21.17;14.90;;;0.40;99.90;;;;;;4967369;28;20827;-85
2024/01/20 07:21:08;;;;;;;22.23;15.47;;;0.40;99.90;;;;;;4973907;28;20233;-83
2024/01/20 07:23:35;;;;;;;22.63;14.50;;;0.30;99.90;;;;;;4952473;28;20753;-84
2024/01/20 07:26:02;;;;;;;20.77;14.43;;;0.30;99.90;;;;;;4953213;28;20230;-84
2024/01/20 07:28:29;;;;;;;21.30;15.10;;;0.30;99.90;;;;;;4955536;28;20234;-85
2024/01/20 07:30:56;;;;;;;23.83;15.27;;;0.30;99.90;;;;;;4973581;28;20686;-84
2024/01/20 07:33:24;;;;;;;23.30;15.60;;;0.20;99.90;;;;;;4959597;28;20264;-85
2024/01/20 07:35:50;;;;;;;21.73;15.07;;;0.20;99.90;;;;;;4949418;28;20260;-84
2024/01/20 07:38:17;;;;;;;19.57;14.40;;;0.20;99.90;;;;;;4952333;28;20997;-84
2024/01/20 07:40:44;;;;;;;23.47;15.33;;;0.20;99.90;;;;;;4975342;28;20312;-84
2024/01/20 07:43:11;;;;;;;25.77;14.90;;;0.20;99.90;;;;;;4977591;28;20231;-84
2024/01/20 07:45:40;;;;;;;24.10;15.90;;;0.20;99.90;;;;;;4962129;28;20325;-85
2024/01/20 07:48:07;;;;;;;23.20;15.60;;;0.10;99.90;;;;;;4962776;28;20229;-84
2024/01/20 07:50:35;;;;;;;26.17;16.47;;;0.20;99.90;;;;;;4951512;28;20251;-85
2024/01/20 07:53:02;;;;;;;26.00;15.53;;;0.10;99.90;;;;;;4967109;28;20297;-84
2024/01/20 07:55:28;;;;;;;31.33;16.03;;;0.10;99.90;;;;;;4958721;28;20305;-84
2024/01/20 07:57:55;;;;;;;44.43;17.07;;;0.10;99.90;;;;;;4954509;28;20288;-84
2024/01/20 08:00:22;;;;;;;30.37;16.30;;;0.10;99.90;;;;;;4973524;28;20246;-84
2024/01/20 08:02:49;;;;;;;25.80;14.97;;;0.10;99.90;;;;;;4953328;28;20690;-83
2024/01/20 08:05:16;;;;;;;26.13;15.97;;;0.10;99.90;;;;;;4985430;28;20230;-84
2024/01/20 08:07:44;;;;;;;30.47;15.40;;;0.10;99.90;;;;;;4965654;28;20232;-84
2024/01/20 08:10:11;;;;;;;25.00;16.27;;;0.20;99.90;;;;;;4949778;28;20310;-84
2024/01/20 08:12:38;;;;;;;25.87;16.33;;;0.20;99.90;;;;;;4979628;28;20315;-84
2024/01/20 08:15:07;;;;;;;21.40;15.60;;;0.20;99.90;;;;;;4982185;28;20316;-83
2024/01/20 08:17:33;;;;;;;23.27;15.20;;;0.20;99.90;;;;;;4969246;28;20223;-84
2024/01/20 08:20:00;;;;;;;23.93;15.63;;;0.30;99.90;;;;;;4973784;28;20307;-83
2024/01/20 08:22:27;;;;;;;23.33;15.13;;;0.30;99.90;;;;;;4979888;28;20774;-84
2024/01/20 08:24:59;;;;;;;30.43;15.23;;;0.30;99.90;;;;;;4972842;28;22135;-83
2024/01/20 08:27:26;;;;;;;24.57;14.77;;;0.40;99.90;;;;;;4958818;28;20317;-83
2024/01/20 08:29:53;;;;;;;22.80;15.97;;;0.40;99.90;;;;;;4983263;28;20918;-83
2024/01/20 08:32:19;;;;;;;25.53;15.50;;;0.40;99.90;;;;;;4959790;28;20293;-84
2024/01/20 08:34:46;;;;;;;27.03;15.87;;;0.40;99.90;;;;;;4963358;28;20232;-83
2024/01/20 08:37:13;;;;;;;26.87;15.47;;;0.50;99.90;;;;;;4963540;28;20598;-84
2024/01/20 08:39:40;;;;;;;25.57;16.13;;;0.50;99.90;;;;;;4975893;28;20231;-83
2024/01/20 08:42:08;;;;;;;28.47;15.43;;;0.50;99.90;;;;;;4977655;28;20838;-82
2024/01/20 08:44:35;;;;;;;25.30;16.50;;;0.60;99.90;;;;;;4957757;28;20237;-84
2024/01/20 08:47:02;;;;;;;26.00;16.37;;;0.60;99.90;;;;;;4977860;28;20219;-82
2024/01/20 08:49:28;;;;;;;24.70;16.57;;;0.70;99.90;;;;;;4971729;28;20257;-84
2024/01/20 08:51:55;;;;;;;30.60;17.03;;;0.80;99.90;;;;;;4963590;28;20255;-85
2024/01/20 08:54:22;;;;;;;27.20;15.50;;;0.90;99.90;;;;;;4959116;28;20237;-85
2024/01/20 08:56:49;;;;;;;29.50;16.10;;;1.00;99.90;;;;;;4951843;28;20699;-83
2024/01/20 08:59:19;;;;;;;26.63;15.27;;;1.10;99.90;;;;;;4951450;28;20229;-85
2024/01/20 09:01:46;;;;;;;26.67;15.93;;;1.30;99.90;;;;;;4944849;28;20222;-84
2024/01/20 09:04:13;;;;;;;27.67;14.93;;;1.40;99.90;;;;;;4937606;28;20246;-86
2024/01/20 09:06:40;;;;;;;25.27;15.03;;;1.50;99.90;;;;;;4943561;28;20313;-85
2024/01/20 09:09:07;;;;;;;30.63;15.97;;;1.60;99.90;;;;;;4946992;28;20269;-86
2024/01/20 09:11:34;;;;;;;26.30;14.10;;;1.70;99.90;;;;;;4944767;28;21007;-86
2024/01/20 09:14:00;;;;;;;22.33;14.83;;;1.80;99.90;;;;;;4949746;28;21095;-86
2024/01/20 09:16:29;;;;;;;26.47;14.70;;;1.80;99.90;;;;;;4938580;28;20304;-86
2024/01/20 09:18:55;;;;;;;23.97;14.53;;;1.80;99.90;;;;;;4945508;28;20250;-85
2024/01/20 09:21:22;;;;;;;25.80;14.47;;;1.80;99.90;;;;;;4964711;28;20234;-87
2024/01/20 09:23:50;;;;;;;24.33;14.40;;;1.80;99.90;;;;;;4947994;28;20257;-85
2024/01/20 09:26:17;;;;;;;22.37;14.07;;;1.90;99.90;;;;;;4953262;28;20314;-86
2024/01/20 09:28:44;;;;;;;25.23;15.03;;;1.80;99.90;;;;;;4945288;28;20679;-85
2024/01/20 09:31:11;;;;;;;27.93;14.73;;;1.80;99.90;;;;;;4946457;28;20729;-87
2024/01/20 09:33:39;;;;;;;30.77;13.97;;;1.80;99.90;;;;;;4955420;28;20796;-86
2024/01/20 09:36:06;;;;;;;25.27;14.57;;;1.80;99.90;;;;;;4951051;28;20309;-87
2024/01/20 09:38:33;;;;;;;26.50;14.87;;;1.90;99.90;;;;;;4960872;28;20250;-86
2024/01/20 09:41:00;;;;;;;27.00;14.00;;;1.80;99.90;;;;;;4959594;28;20283;-86
2024/01/20 09:43:28;;;;;;;21.93;13.77;;;1.80;99.90;;;;;;4949765;28;20234;-86
2024/01/20 09:45:57;;;;;;;23.67;14.27;;;1.80;99.90;;;;;;4960492;28;20236;-85
2024/01/20 09:48:24;;;;;;;26.20;14.23;;;1.90;99.90;;;;;;4944772;28;20422;-84
2024/01/20 09:50:52;;;;;;;22.67;14.37;;;2.00;99.90;;;;;;4951248;28;20268;-85
2024/01/20 09:53:19;;;;;;;23.90;15.07;;;2.00;99.90;;;;;;4956731;28;20318;-85
2024/01/20 09:55:46;;;;;;;26.87;14.80;;;2.10;99.90;;;;;;4952571;28;20253;-85
2024/01/20 09:58:15;;;;;;;25.20;14.03;;;2.20;99.90;;;;;;4968221;28;20787;-82
2024/01/20 10:00:43;;;;;;;27.87;14.40;;;2.40;99.90;;;;;;4974070;28;20740;-83
2024/01/20 10:03:11;;;;;;;25.37;14.70;;;2.40;99.90;;;;;;4970111;28;20233;-83
2024/01/20 10:05:46;;;;;;;26.53;15.10;;;2.50;99.90;;;;;;4965175;28;20232;-83
2024/01/20 10:08:14;;;;;;;24.33;15.07;;;2.60;99.90;;;;;;4961845;28;21010;-83
2024/01/20 10:10:41;;;;;;;23.70;13.40;;;2.60;99.90;;;;;;4968088;28;20234;-83
2024/01/20 10:13:07;;;;;;;26.60;14.50;;;2.70;99.90;;;;;;4975983;28;20227;-83
2024/01/20 10:15:34;;;;;;;24.33;14.20;;;2.70;99.90;;;;;;4955265;28;20252;-82
2024/01/20 10:18:08;;;;;;;23.13;14.03;;;2.70;99.90;;;;;;4954120;28;20258;-83
2024/01/20 10:20:35;;;;;;;26.67;14.23;;;2.70;99.90;;;;;;4968833;28;20240;-83
2024/01/20 10:23:04;;;;;;;23.90;14.07;;;2.70;99.90;;;;;;4978006;28;20256;-83
2024/01/20 10:25:32;;;;;;;24.40;14.23;;;2.80;99.90;;;;;;4958091;28;20314;-83
2024/01/20 10:27:59;;;;;;;22.87;13.50;;;2.80;99.90;;;;;;4956335;28;20295;-83
2024/01/20 10:30:28;;;;;;;24.43;13.97;;;2.80;99.90;;;;;;4979102;28;20640;-83
2024/01/20 10:32:55;;;;;;;24.80;13.33;;;2.80;99.90;;;;;;4966961;28;20245;-83
2024/01/20 10:35:21;;;;;;;23.03;13.63;;;2.90;99.90;;;;;;4961933;28;20330;-82
2024/01/20 10:37:50;;;;;;;24.03;13.53;;;2.90;99.90;;;;;;4962558;28;20223;-82
2024/01/20 10:40:17;;;;;;;28.10;13.43;;;2.90;99.90;;;;;;4978003;28;20227;-83
2024/01/20 10:42:46;;;;;;;22.50;13.37;;;2.90;99.90;;;;;;4952102;28;20228;-82
2024/01/20 10:45:17;;;;;;;21.10;13.13;;;2.90;99.90;;;;;;4950954;28;20223;-82
2024/01/20 10:47:54;;;;;;;22.00;13.47;;;2.90;99.90;;;;;;4969147;28;20604;-85
2024/01/20 10:50:23;;;;;;;21.83;13.60;;;3.00;99.90;;;;;;4944193;28;20228;-84
2024/01/20 10:52:51;;;;;;;24.83;13.10;;;3.10;99.90;;;;;;4969551;28;20240;-85
2024/01/20 10:55:19;;;;;;;21.13;13.00;;;3.20;99.90;;;;;;4953276;28;20637;-86
2024/01/20 10:57:47;;;;;;;22.03;13.07;;;3.30;99.90;;;;;;4955357;28;20220;-82
2024/01/20 11:00:15;;;;;;;21.57;12.67;;;3.50;99.90;;;;;;4960116;28;20224;-82
2024/01/20 11:02:43;;;;;;;20.87;12.07;;;3.50;99.90;;;;;;4964717;28;20307;-82
2024/01/20 11:05:21;;;;;;;21.23;13.20;;;3.50;99.90;;;;;;4964070;28;20252;-82
2024/01/20 11:07:58;;;;;;;19.90;12.10;;;3.60;99.90;;;;;;4965977;28;20230;-82
2024/01/20 11:10:26;;;;;;;23.20;12.20;;;3.60;99.90;;;;;;4948055;28;20872;-82
2024/01/20 11:13:01;;;;;;;34.47;12.30;;;3.60;99.90;;;;;;4952730;28;20886;-82
2024/01/20 11:15:30;;;;;;;20.87;12.30;;;3.50;99.90;;;;;;4965366;28;20228;-85
2024/01/20 11:17:57;;;;;;;22.83;12.63;;;3.50;99.90;;;;;;4945822;28;20212;-86
2024/01/20 11:20:24;;;;;;;18.03;11.20;;;3.40;99.90;;;;;;4948799;28;23586;-86
2024/01/20 11:22:51;;;;;;;22.60;11.30;;;3.40;99.90;;;;;;4955886;28;20304;-87
2024/01/20 11:25:19;;;;;;;21.50;12.17;;;3.30;99.90;;;;;;4966188;28;20230;-87
2024/01/20 11:27:47;;;;;;;22.27;11.23;;;3.30;99.90;;;;;;4948860;28;20239;-87
2024/01/20 11:30:26;;;;;;;19.17;11.33;;;3.20;99.90;;;;;;4947464;28;20229;-86
2024/01/20 11:32:53;;;;;;;21.40;11.70;;;3.20;99.90;;;;;;4948882;28;20234;-86
2024/01/20 11:35:19;;;;;;;20.77;10.70;;;3.10;99.90;;;;;;4953171;28;20286;-86
2024/01/20 11:37:47;;;;;;;22.80;11.67;;;3.20;99.90;;;;;;4966683;28;20222;-85
2024/01/20 11:40:13;;;;;;;18.77;10.17;;;3.20;99.90;;;;;;4951707;28;20335;-87
2024/01/20 11:42:40;;;;;;;21.60;12.20;;;3.20;99.90;;;;;;4949335;28;20227;-87
2024/01/20 11:45:08;;;;;;;23.97;11.93;;;3.20;99.90;;;;;;4945641;28;20424;-87
2024/01/20 11:47:37;;;;;;;21.70;11.63;;;3.20;99.90;;;;;;4948678;28;20282;-86
2024/01/20 11:50:04;;;;;;;19.03;11.13;;;3.30;99.90;;;;;;4944020;28;20249;-87
2024/01/20 11:52:31;;;;;;;19.40;10.30;;;3.30;99.90;;;;;;4946173;28;20249;-88
2024/01/20 11:54:59;;;;;;;20.10;11.13;;;3.30;99.90;;;;;;4952397;28;20316;-89
2024/01/20 11:57:29;;;;;;;17.73;10.40;;;3.30;99.90;;;;;;4948036;28;20223;-87
2024/01/20 11:59:56;;;;;;;20.13;10.37;;;3.30;99.90;;;;;;4948710;28;20244;-88
2024/01/20 12:02:23;;;;;;;18.23;10.60;;;3.20;99.90;;;;;;4952880;28;20319;-89
2024/01/20 12:04:51;;;;;;;19.07;10.57;;;3.20;99.90;;;;;;4970614;28;20781;-87
2024/01/20 12:07:18;;;;;;;19.07;10.07;;;3.20;99.90;;;;;;4957847;28;20286;-89
2024/01/20 12:09:46;;;;;;;16.93;9.57;;;3.20;99.90;;;;;;4974355;28;20281;-88
2024/01/20 12:12:13;;;;;;;20.20;10.97;;;3.20;99.90;;;;;;4946736;28;20225;-88
2024/01/20 12:14:41;;;;;;;19.80;10.13;;;3.20;99.90;;;;;;4947709;28;20609;-88
2024/01/20 12:17:08;;;;;;;18.60;10.60;;;3.20;99.90;;;;;;4966952;28;21074;-89
2024/01/20 12:19:38;;;;;;;20.37;9.90;;;3.20;99.90;;;;;;4955763;28;20251;-89
2024/01/20 12:22:07;;;;;;;23.80;11.27;;;3.20;99.90;;;;;;4971159;28;20232;-88
2024/01/20 12:24:34;;;;;;;21.13;10.30;;;3.20;99.90;;;;;;4959886;28;20309;-88
2024/01/20 12:27:02;;;;;;;20.37;10.97;;;3.20;99.90;;;;;;4960637;28;20216;-88
2024/01/20 12:29:29;;;;;;;23.60;10.67;;;3.20;99.90;;;;;;4959382;28;20727;-89
2024/01/20 12:31:56;;;;;;;19.33;10.93;;;3.20;99.90;;;;;;4977000;28;20293;-88
2024/01/20 12:34:25;;;;;;;19.13;11.33;;;3.10;99.90;;;;;;4964609;28;21071;-88
2024/01/20 12:36:52;;;;;;;22.40;11.07;;;3.00;99.90;;;;;;4985837;28;20617;-89
2024/01/20 12:39:20;;;;;;;19.30;10.93;;;3.00;99.90;;;;;;4961031;28;20247;-88
2024/01/20 12:41:47;;;;;;;20.40;11.80;;;2.90;99.90;;;;;;4973882;28;20275;-88